createdAt,value
2023-02-20T00:02:00.994Z,85.80
2023-02-20T00:04:31.901Z,27.40
2023-02-20T00:07:02.120Z,19.52
2023-02-20T00:09:38.340Z,21.60
2023-02-20T00:12:10.656Z,17.27
2023-02-20T00:14:42.130Z,15.20
2023-02-20T00:17:21.327Z,15.00
2023-02-20T00:19:52.737Z,16.42
2023-02-20T00:22:27.333Z,18.15
2023-02-20T00:25:23.171Z,18.00
2023-02-20T00:27:53.823Z,13.75
2023-02-20T00:30:47.952Z,15.65
2023-02-20T00:33:24.647Z,16.20
2023-02-20T00:36:01.298Z,11.52
2023-02-20T00:38:31.907Z,15.68
2023-02-20T00:43:24.659Z,15.52
2023-02-20T00:44:33.119Z,15.27
2023-02-20T00:47:32.909Z,13.85
2023-02-20T00:50:08.533Z,11.27
2023-02-20T00:52:52.397Z,9.77
2023-02-20T00:55:28.989Z,11.45
2023-02-20T00:58:03.057Z,10.30
2023-02-20T01:00:52.520Z,7.72
2023-02-20T01:03:26.335Z,10.70
2023-02-20T01:05:56.826Z,12.82
2023-02-20T01:08:30.480Z,14.20
2023-02-20T01:11:05.063Z,13.10
2023-02-20T01:13:36.989Z,17.50
2023-02-20T01:16:12.819Z,9.88
2023-02-20T01:18:52.490Z,9.18
2023-02-20T01:21:53.126Z,7.57
2023-02-20T01:24:50.980Z,12.35
2023-02-20T01:27:39.563Z,8.27
2023-02-20T01:30:17.399Z,10.27
2023-02-20T01:36:44.337Z,9.60
2023-02-20T01:39:40.839Z,8.63
2023-02-20T01:45:56.553Z,10.70
2023-02-20T01:48:35.832Z,8.38
2023-02-20T01:54:38.425Z,11.98
2023-02-20T01:57:17.905Z,12.10
2023-02-20T02:03:33.818Z,7.90
2023-02-20T02:06:14.239Z,9.43
2023-02-20T02:08:50.267Z,7.38
2023-02-20T02:11:26.046Z,6.90
2023-02-20T02:14:03.526Z,14.00
2023-02-20T02:16:37.075Z,8.32
2023-02-20T02:19:32.599Z,8.93
2023-02-20T02:22:37.764Z,11.10
2023-02-20T02:25:28.126Z,10.43
2023-02-20T02:28:21.943Z,10.98
2023-02-20T02:31:12.713Z,7.97
2023-02-20T02:34:06.815Z,15.80
2023-02-20T02:37:25.058Z,8.55
2023-02-20T02:40:17.435Z,9.98
2023-02-20T02:44:01.784Z,6.18
2023-02-20T02:50:53.015Z,6.15
2023-02-20T02:54:09.541Z,6.82
2023-02-20T02:57:44.083Z,9.60
2023-02-20T03:01:08.312Z,10.30
2023-02-20T03:03:46.681Z,7.70
2023-02-20T03:06:35.615Z,7.63
2023-02-20T03:18:39.608Z,8.93
2023-02-20T03:26:00.290Z,8.88
2023-02-20T03:29:54.196Z,5.55
2023-02-20T03:33:18.639Z,12.88
2023-02-20T03:36:29.182Z,10.48
2023-02-20T03:39:46.123Z,7.43
2023-02-20T03:45:47.006Z,9.80
2023-02-20T03:48:32.602Z,8.80
2023-02-20T03:51:09.620Z,7.95
2023-02-20T03:53:52.100Z,11.70
2023-02-20T03:56:55.761Z,9.05
2023-02-20T04:00:08.988Z,6.75
2023-02-20T04:02:50.999Z,10.57
2023-02-20T04:08:18.116Z,13.00
2023-02-20T04:11:15.930Z,13.60
2023-02-20T04:13:59.122Z,11.27
2023-02-20T04:16:45.928Z,9.30
2023-02-20T04:19:22.805Z,11.80
2023-02-20T04:22:09.182Z,10.27
2023-02-20T04:25:12.811Z,7.60
2023-02-20T04:27:50.768Z,10.43
2023-02-20T04:30:22.198Z,8.80
2023-02-20T04:32:54.382Z,9.48
2023-02-20T04:35:25.266Z,7.32
2023-02-20T04:37:59.019Z,8.82
2023-02-20T04:40:32.728Z,10.00
2023-02-20T04:43:03.626Z,8.27
2023-02-20T04:45:33.997Z,10.07
2023-02-20T04:48:07.173Z,6.22
2023-02-20T04:50:38.011Z,11.10
2023-02-20T04:53:09.635Z,9.07
2023-02-20T04:55:40.324Z,7.50
2023-02-20T04:58:15.915Z,6.65
2023-02-20T05:00:55.400Z,7.63
2023-02-20T05:03:26.212Z,8.38
2023-02-20T05:06:13.624Z,6.28
2023-02-20T05:08:43.966Z,7.10
2023-02-20T05:11:14.589Z,9.25
2023-02-20T05:14:02.975Z,6.30
2023-02-20T05:16:33.427Z,8.18
2023-02-20T05:19:03.811Z,10.07
2023-02-20T05:21:54.166Z,10.45
2023-02-20T05:24:27.344Z,7.75
2023-02-20T05:26:58.807Z,11.60
2023-02-20T05:29:29.013Z,4.43
2023-02-20T05:31:59.123Z,6.43
2023-02-20T05:34:31.880Z,7.90
2023-02-20T05:37:01.998Z,10.18
2023-02-20T05:39:37.446Z,10.02
2023-02-20T05:42:08.959Z,6.40
2023-02-20T05:44:39.490Z,8.30
2023-02-20T05:47:09.880Z,11.18
2023-02-20T05:49:43.319Z,8.07
2023-02-20T05:52:14.265Z,7.55
2023-02-20T05:54:47.836Z,8.95
2023-02-20T05:57:18.039Z,8.63
2023-02-20T05:59:48.640Z,9.88
2023-02-20T06:02:24.330Z,5.82
2023-02-20T06:04:57.935Z,11.20
2023-02-20T06:07:28.250Z,10.40
2023-02-20T06:09:58.410Z,7.25
2023-02-20T06:12:28.890Z,7.25
2023-02-20T06:14:59.276Z,8.98
2023-02-20T06:17:31.146Z,11.02
2023-02-20T06:20:01.607Z,6.40
2023-02-20T06:22:31.790Z,7.95
2023-02-20T06:25:02.507Z,6.38
2023-02-20T06:27:32.676Z,9.73
2023-02-20T06:30:03.138Z,8.43
2023-02-20T06:32:33.729Z,7.47
2023-02-20T06:35:08.419Z,8.20
2023-02-20T06:37:45.859Z,8.30
2023-02-20T06:40:15.934Z,5.35
2023-02-20T06:42:46.064Z,4.63
2023-02-20T06:45:16.791Z,6.18
2023-02-20T06:47:47.384Z,7.28
2023-02-20T06:50:19.142Z,6.65
2023-02-20T06:52:49.423Z,6.20
2023-02-20T06:55:19.555Z,7.72
2023-02-20T06:57:52.106Z,11.45
2023-02-20T07:00:22.523Z,8.10
2023-02-20T07:02:53.263Z,9.05
2023-02-20T07:05:23.778Z,4.35
2023-02-20T07:07:55.661Z,10.85
2023-02-20T07:10:26.107Z,8.05
2023-02-20T07:12:56.891Z,6.80
2023-02-20T07:15:28.082Z,7.63
2023-02-20T07:30:52.370Z,9.20
2023-02-20T07:33:22.671Z,4.93
2023-02-20T07:35:52.448Z,11.10
2023-02-20T07:38:22.532Z,5.85
2023-02-20T07:40:52.216Z,9.80
2023-02-20T07:43:22.637Z,8.02
2023-02-20T07:45:53.863Z,7.28
2023-02-20T07:48:27.093Z,8.00
2023-02-20T07:50:57.273Z,12.32
2023-02-20T07:53:29.208Z,7.85
2023-02-20T07:56:00.828Z,12.65
2023-02-20T07:58:31.050Z,10.68
2023-02-20T08:01:01.603Z,5.43
2023-02-20T08:03:33.207Z,9.00
2023-02-20T08:06:03.614Z,22.50
2023-02-20T08:08:34.480Z,33.30
2023-02-20T08:11:09.137Z,64.07
2023-02-20T08:16:09.973Z,90.72
2023-02-20T08:18:40.333Z,77.80
2023-02-20T08:21:10.367Z,117.63
2023-02-20T08:23:40.567Z,96.28
2023-02-20T08:26:10.611Z,85.40
2023-02-20T08:28:42.100Z,87.28
2023-02-20T08:31:22.893Z,90.72
2023-02-20T08:36:30.799Z,90.88
2023-02-20T08:39:04.943Z,90.07
2023-02-20T08:41:35.731Z,106.72
2023-02-20T08:44:06.803Z,95.45
2023-02-20T08:46:37.324Z,99.88
2023-02-20T08:49:08.214Z,106.28
2023-02-20T08:51:38.633Z,113.63
2023-02-20T08:54:09.274Z,118.47
2023-02-20T08:56:40.455Z,106.57
2023-02-20T08:59:11.784Z,104.07
2023-02-20T09:01:45.649Z,100.47
2023-02-20T09:04:18.504Z,83.15
2023-02-20T09:06:48.850Z,117.72
2023-02-20T09:09:19.618Z,102.38
2023-02-20T09:11:50.999Z,81.65
2023-02-20T09:14:21.531Z,84.20
2023-02-20T09:16:54.643Z,110.82
2023-02-20T09:19:26.171Z,122.28
2023-02-20T09:21:56.429Z,121.00
2023-02-20T09:24:26.679Z,101.97
2023-02-20T09:26:57.749Z,83.45
2023-02-20T09:29:28.793Z,98.85
2023-02-20T09:32:00.327Z,89.60
2023-02-20T09:34:33.053Z,77.68
2023-02-20T09:37:03.151Z,84.60
2023-02-20T09:39:34.635Z,79.20
2023-02-20T09:42:22.038Z,112.68
2023-02-20T09:45:07.530Z,83.35
2023-02-20T09:47:47.402Z,60.10
2023-02-20T09:50:33.276Z,56.28
2023-02-20T09:53:33.963Z,65.20
2023-02-20T09:56:06.886Z,71.53
2023-02-20T09:58:46.769Z,97.13
2023-02-20T10:01:21.724Z,87.50
2023-02-20T10:04:21.747Z,96.28
2023-02-20T10:06:56.957Z,82.13
2023-02-20T10:09:27.467Z,83.28
2023-02-20T10:12:10.182Z,83.10
2023-02-20T10:15:07.126Z,55.88
2023-02-20T10:18:01.146Z,55.50
2023-02-20T10:21:08.570Z,48.67
2023-02-20T10:23:56.830Z,44.30
2023-02-20T10:26:42.072Z,23.08
2023-02-20T10:29:22.581Z,31.15
2023-02-20T10:32:16.964Z,27.30
2023-02-20T10:34:58.035Z,27.50
2023-02-20T10:37:46.616Z,22.48
2023-02-20T10:40:23.617Z,23.77
2023-02-20T10:43:19.942Z,21.75
2023-02-20T10:46:09.320Z,15.73
2023-02-20T10:48:41.719Z,23.73
2023-02-20T10:51:32.643Z,18.35
2023-02-20T10:54:35.644Z,22.75
2023-02-20T10:57:21.432Z,14.38
2023-02-20T11:00:09.069Z,10.82
2023-02-20T11:02:47.568Z,9.35
2023-02-20T11:05:23.282Z,9.90
2023-02-20T11:07:54.822Z,8.40
2023-02-20T11:10:26.609Z,8.65
2023-02-20T11:13:03.927Z,8.82
2023-02-20T11:15:37.380Z,5.50
2023-02-20T11:18:34.123Z,6.72
2023-02-20T11:21:05.758Z,7.55
2023-02-20T11:23:43.628Z,10.10
2023-02-20T11:26:36.395Z,7.55
2023-02-20T11:29:15.453Z,7.35
2023-02-20T11:31:49.090Z,8.30
2023-02-20T11:34:32.968Z,8.38
2023-02-20T11:37:14.254Z,6.68
2023-02-20T11:39:51.888Z,6.22
2023-02-20T11:42:22.771Z,5.25
2023-02-20T11:45:27.678Z,6.55
2023-02-20T11:48:23.040Z,4.18
2023-02-20T11:50:55.910Z,4.10
2023-02-20T11:53:37.929Z,5.15
2023-02-20T11:58:48.689Z,3.50
2023-02-20T12:01:40.736Z,5.15
2023-02-20T12:04:26.366Z,4.95
2023-02-20T12:06:56.721Z,4.43
2023-02-20T12:09:30.432Z,3.90
2023-02-20T12:12:03.684Z,4.63
2023-02-20T12:14:34.830Z,4.68
2023-02-20T12:17:23.328Z,5.00
2023-02-20T12:20:20.391Z,4.55
2023-02-20T12:23:04.241Z,6.40
2023-02-20T12:25:58.691Z,7.60
2023-02-20T12:28:59.663Z,4.95
2023-02-20T12:31:59.244Z,6.20
2023-02-20T12:35:01.812Z,5.35
2023-02-20T12:37:39.835Z,6.50
2023-02-20T12:40:40.603Z,5.55
2023-02-20T12:43:47.552Z,4.72
2023-02-20T12:46:30.174Z,4.32
2023-02-20T12:49:57.693Z,5.68
2023-02-20T12:52:57.582Z,3.38
2023-02-20T12:58:37.784Z,3.40
2023-02-20T13:12:39.800Z,4.75
2023-02-20T13:15:52.074Z,5.70
2023-02-20T13:18:23.779Z,3.13
2023-02-20T13:21:16.722Z,6.07
2023-02-20T13:24:36.893Z,4.50
2023-02-20T13:27:11.937Z,5.53
2023-02-20T13:30:10.372Z,8.07
2023-02-20T13:33:01.702Z,9.40
2023-02-20T13:35:55.514Z,5.90
2023-02-20T13:38:30.168Z,6.13
2023-02-20T13:41:01.055Z,5.75
2023-02-20T13:43:42.109Z,4.32
2023-02-20T13:46:22.385Z,6.03
2023-02-20T13:48:57.748Z,3.65
2023-02-20T13:51:33.082Z,5.15
2023-02-20T13:54:20.644Z,5.07
2023-02-20T13:57:01.625Z,5.22
2023-02-20T13:59:34.538Z,6.03
2023-02-20T14:02:33.780Z,6.03
2023-02-20T14:05:22.807Z,3.45
2023-02-20T14:07:54.064Z,3.90
2023-02-20T14:10:59.816Z,4.32
2023-02-20T14:13:40.070Z,5.82
2023-02-20T14:16:33.117Z,15.20
2023-02-20T14:19:35.660Z,5.05
2023-02-20T14:22:28.489Z,5.95
2023-02-20T14:25:15.254Z,4.57
2023-02-20T14:27:49.381Z,5.28
2023-02-20T14:30:27.546Z,5.72
2023-02-20T14:33:27.735Z,3.75
2023-02-20T14:40:47.414Z,4.18
2023-02-20T14:43:24.805Z,4.90
2023-02-20T14:46:10.342Z,7.38
2023-02-20T14:48:45.661Z,8.50
2023-02-20T14:51:29.444Z,5.80
2023-02-20T14:54:18.976Z,5.18
2023-02-20T14:56:54.271Z,9.80
2023-02-20T14:59:39.865Z,7.68
2023-02-20T15:02:34.438Z,5.30
2023-02-20T15:05:18.632Z,4.43
2023-02-20T15:07:50.735Z,5.22
2023-02-20T15:11:04.099Z,4.28
2023-02-20T15:13:40.722Z,5.25
2023-02-20T15:16:20.861Z,6.30
2023-02-20T15:18:51.838Z,5.07
2023-02-20T15:21:37.401Z,7.15
2023-02-20T15:24:36.348Z,4.85
2023-02-20T15:27:15.916Z,4.00
2023-02-20T15:29:52.198Z,2.83
2023-02-20T15:32:26.846Z,4.57
2023-02-20T15:34:59.833Z,3.17
2023-02-20T15:37:39.157Z,4.53
2023-02-20T15:40:30.052Z,3.53
2023-02-20T15:43:04.589Z,2.92
2023-02-20T15:45:40.456Z,3.90
2023-02-20T15:52:30.667Z,3.70
2023-02-20T15:55:06.122Z,3.45
2023-02-20T16:00:09.538Z,5.80
2023-02-20T16:02:42.800Z,7.47
2023-02-20T16:05:14.526Z,4.57
2023-02-20T16:07:44.778Z,8.73
2023-02-20T16:10:20.415Z,5.88
2023-02-20T16:13:00.937Z,3.67
2023-02-20T16:15:31.439Z,6.55
2023-02-20T16:18:01.528Z,5.93
2023-02-20T16:20:33.835Z,9.55
2023-02-20T16:23:06.910Z,4.47
2023-02-20T16:25:39.188Z,5.25
2023-02-20T16:28:18.915Z,5.57
2023-02-20T16:30:53.308Z,5.95
2023-02-20T16:33:25.290Z,8.02
2023-02-20T16:35:56.797Z,7.07
2023-02-20T16:38:29.324Z,6.30
2023-02-20T16:41:04.362Z,6.03
2023-02-20T16:43:35.151Z,3.90
2023-02-20T16:46:09.057Z,6.20
2023-02-20T16:48:40.561Z,4.45
2023-02-20T16:51:15.421Z,4.15
2023-02-20T16:53:46.163Z,2.95
2023-02-20T16:56:17.652Z,5.53
2023-02-20T16:58:48.080Z,11.32
2023-02-20T17:01:19.526Z,13.30
2023-02-20T17:03:50.195Z,10.75
2023-02-20T17:06:24.095Z,8.68
2023-02-20T17:08:56.888Z,12.30
2023-02-20T17:11:27.622Z,4.43
2023-02-20T17:14:07.057Z,3.08
2023-02-20T17:16:37.709Z,4.20
2023-02-20T17:19:13.775Z,5.20
2023-02-20T17:22:13.593Z,3.70
2023-02-20T19:06:42.665Z,34.58
2023-02-20T19:09:21.066Z,33.88
2023-02-20T19:11:58.562Z,22.27
2023-02-20T19:14:32.283Z,29.05
2023-02-20T19:17:07.219Z,36.05
2023-02-20T19:19:37.709Z,19.40
2023-02-20T19:22:08.030Z,28.20
2023-02-20T19:27:33.355Z,23.13
2023-02-20T19:30:03.992Z,33.00
2023-02-20T19:32:39.781Z,21.33
2023-02-20T19:35:19.801Z,58.95
2023-02-20T19:37:53.191Z,23.50
2023-02-20T19:40:38.313Z,49.72
2023-02-20T19:43:10.647Z,23.23
2023-02-20T19:45:41.293Z,42.38
2023-02-20T19:48:11.521Z,51.60
2023-02-20T19:50:45.505Z,34.75
2023-02-20T19:53:25.240Z,44.30
2023-02-20T19:55:56.379Z,28.38
2023-02-20T19:58:29.406Z,42.15
2023-02-20T20:01:02.914Z,43.00
2023-02-20T20:03:43.022Z,34.00
2023-02-20T20:06:16.324Z,29.55
2023-02-20T20:09:10.996Z,48.53
2023-02-20T20:11:51.262Z,28.45
2023-02-20T20:14:25.839Z,37.88
2023-02-20T20:17:01.230Z,32.67
2023-02-20T20:19:58.447Z,41.20
2023-02-20T20:22:37.419Z,34.05
2023-02-20T20:25:11.753Z,27.30
2023-02-20T20:27:45.351Z,24.02
2023-02-20T20:30:46.722Z,47.42
2023-02-20T20:33:18.717Z,27.42
2023-02-20T20:35:56.185Z,26.67
2023-02-20T20:38:32.604Z,70.45
2023-02-20T20:41:03.057Z,31.83
2023-02-20T20:43:39.523Z,39.65
2023-02-20T20:46:11.219Z,36.17
2023-02-20T20:48:49.930Z,51.42
2023-02-20T20:51:27.385Z,45.70
2023-02-20T20:54:10.001Z,23.83
2023-02-20T20:56:52.719Z,42.95
2023-02-20T20:59:30.131Z,41.33
2023-02-20T21:02:07.438Z,44.58
2023-02-20T21:05:24.215Z,52.60
2023-02-20T21:08:07.539Z,50.95
2023-02-20T21:10:40.352Z,48.35
2023-02-20T21:13:16.423Z,35.88
2023-02-20T21:15:55.803Z,31.15
2023-02-20T21:18:26.999Z,39.45
2023-02-20T21:20:59.486Z,30.42
2023-02-20T21:23:37.620Z,44.85
2023-02-20T21:26:08.254Z,22.15
2023-02-20T21:28:38.803Z,31.65
2023-02-20T21:31:09.086Z,48.50
2023-02-20T21:33:42.348Z,41.15
2023-02-20T21:36:18.023Z,78.57
2023-02-20T21:38:51.701Z,31.08
2023-02-20T21:41:41.966Z,28.67
2023-02-20T21:44:30.799Z,40.97
2023-02-20T21:47:05.772Z,68.32
2023-02-20T21:49:37.367Z,31.45
2023-02-20T21:52:08.391Z,35.42
2023-02-20T21:54:40.870Z,42.90
2023-02-20T21:57:10.990Z,36.22
2023-02-20T21:59:40.803Z,38.08
2023-02-20T22:02:22.872Z,31.92
2023-02-20T22:04:53.129Z,27.65
2023-02-20T22:07:41.774Z,30.00
2023-02-20T22:10:34.097Z,37.17
2023-02-20T22:13:22.487Z,33.40
2023-02-20T22:16:10.764Z,28.15
2023-02-20T22:18:59.925Z,38.00
2023-02-20T22:21:49.217Z,31.60
2023-02-20T22:24:41.757Z,16.88
2023-02-20T22:27:31.202Z,18.48
2023-02-20T22:30:20.757Z,34.10
2023-02-20T22:33:14.735Z,22.88
2023-02-20T22:36:06.212Z,16.92
2023-02-20T22:38:59.138Z,18.65
2023-02-20T22:41:53.786Z,25.75
2023-02-20T22:44:42.554Z,26.08
2023-02-20T22:47:34.660Z,30.17
2023-02-20T22:50:27.438Z,24.48
2023-02-20T22:53:16.839Z,30.33
2023-02-20T22:56:12.513Z,23.63
2023-02-20T22:59:02.856Z,43.78
2023-02-20T23:01:54.954Z,38.30
2023-02-20T23:04:46.318Z,39.08
2023-02-20T23:07:36.214Z,29.80
2023-02-20T23:10:28.469Z,36.55
2023-02-20T23:13:17.794Z,42.17
2023-02-20T23:16:09.502Z,32.28
2023-02-20T23:19:02.355Z,32.70
2023-02-20T23:21:54.055Z,26.05
2023-02-20T23:24:42.723Z,19.70
2023-02-20T23:27:30.717Z,33.05
2023-02-20T23:33:06.629Z,35.65
2023-02-20T23:36:05.279Z,43.63
2023-02-20T23:39:00.240Z,15.02
2023-02-20T23:41:50.510Z,32.60
2023-02-20T23:44:43.618Z,47.45
2023-02-20T23:47:43.878Z,26.02
2023-02-20T23:50:35.920Z,35.72
2023-02-20T23:53:26.547Z,34.58
2023-02-20T23:56:14.649Z,30.90
2023-02-20T23:59:07.866Z,24.00
